Time;durP1;ratioP1;P1;durP2;ratioP2;P2;SDS_P1;SDS_P2;PMS_P1;PMS_P2;Temp;Humidity;BMP_temperature;BMP_pressure;BME280_temperature;BME280_humidity;BME280_pressure;Samples;Min_cycle;Max_cycle;Signal;HPM_P1;HPM_P2
2021/11/27 00:01:10;;;;;;;91.40;38.50;;;;;;;0.83;86.13;98085.35;103884;1317;22650;-79
2021/11/27 00:03:42;;;;;;;87.00;36.50;;;;;;;0.85;86.15;98087.64;103807;1319;23035;-79
2021/11/27 00:06:13;;;;;;;98.70;40.20;;;;;;;0.87;86.23;98088.79;103817;1316;23295;-78
2021/11/27 00:08:45;;;;;;;91.70;38.20;;;;;;;0.88;86.13;98083.08;103653;1317;22558;-78
2021/11/27 00:11:16;;;;;;;90.10;37.00;;;;;;;0.91;86.16;98088.27;103732;1316;25375;-78
2021/11/27 00:13:47;;;;;;;87.90;36.10;;;;;;;0.92;86.07;98082.65;103816;1309;25226;-78
2021/11/27 00:16:19;;;;;;;87.80;38.10;;;;;;;0.94;86.10;98083.35;103809;1316;25553;-79
2021/11/27 00:18:51;;;;;;;92.20;40.50;;;;;;;0.96;86.12;98077.45;103787;1319;24214;-78
2021/11/27 00:21:22;;;;;;;90.00;37.20;;;;;;;0.99;86.09;98072.52;103925;1316;25493;-78
2021/11/27 00:23:54;;;;;;;158.30;63.40;;;;;;;1.02;86.10;98071.34;103823;1309;22609;-78
2021/11/27 00:26:25;;;;;;;168.00;69.60;;;;;;;1.03;86.13;98074.65;104195;1316;23621;-78
2021/11/27 00:28:56;;;;;;;170.60;67.30;;;;;;;1.05;86.04;98070.70;104028;1316;22632;-78
2021/11/27 00:31:29;;;;;;;133.40;57.10;;;;;;;1.09;86.04;98071.08;104259;1314;22652;-78
2021/11/27 00:34:01;;;;;;;107.60;45.50;;;;;;;1.10;85.88;98071.70;104770;1319;22937;-79
2021/11/27 00:36:32;;;;;;;102.60;41.60;;;;;;;1.10;85.86;98067.45;104149;1316;22628;-78
2021/11/27 00:39:04;;;;;;;88.10;39.00;;;;;;;1.11;85.86;98065.70;103860;1316;24000;-77
2021/11/27 00:41:36;;;;;;;85.00;36.30;;;;;;;1.12;85.81;98063.16;104024;1309;22598;-79
2021/11/27 00:44:08;;;;;;;85.60;34.60;;;;;;;1.11;85.84;98063.73;103820;1316;24263;-78
2021/11/27 00:46:39;;;;;;;85.20;34.60;;;;;;;1.10;85.80;98064.56;103933;1314;25307;-78
2021/11/27 00:49:12;;;;;;;80.70;32.50;;;;;;;1.10;85.80;98056.23;103982;1317;23367;-78
2021/11/27 00:51:43;;;;;;;80.80;34.40;;;;;;;1.10;85.84;98054.98;103696;1319;22596;-77
2021/11/27 00:54:16;;;;;;;98.40;42.30;;;;;;;1.10;85.74;98052.52;103889;1316;22541;-78
2021/11/27 00:56:47;;;;;;;106.30;45.30;;;;;;;1.10;85.64;98054.16;104018;1315;25220;-78
2021/11/27 00:59:20;;;;;;;115.70;46.80;;;;;;;1.08;85.49;98054.48;104183;1316;22611;-79
2021/11/27 01:01:52;;;;;;;104.20;45.00;;;;;;;1.06;85.52;98053.05;103890;1309;22571;-79
2021/11/27 01:04:24;;;;;;;100.00;42.00;;;;;;;1.07;85.53;98051.70;104160;1316;22580;-79
2021/11/27 01:06:56;;;;;;;96.00;41.20;;;;;;;1.06;85.45;98051.55;103987;1319;23379;-78
2021/11/27 01:09:26;;;;;;;90.80;38.40;;;;;;;1.06;85.44;98050.73;104253;1312;22590;-78
2021/11/27 01:11:58;;;;;;;90.10;38.10;;;;;;;1.05;85.43;98051.86;103989;1317;22578;-79
2021/11/27 01:14:30;;;;;;;82.70;35.80;;;;;;;1.05;85.53;98047.63;104277;1314;23284;-78
2021/11/27 01:17:06;;;;;;;85.40;37.20;;;;;;;1.05;85.55;98054.52;104261;1309;25699;-79
2021/11/27 01:19:40;;;;;;;85.00;35.40;;;;;;;1.04;85.42;98053.80;104077;1316;25530;-79
2021/11/27 01:22:14;;;;;;;82.20;34.20;;;;;;;1.05;85.48;98051.81;104061;1310;22679;-78
2021/11/27 01:24:45;;;;;;;76.00;34.00;;;;;;;1.06;85.56;98056.13;103903;1316;22678;-78
2021/11/27 01:27:17;;;;;;;76.70;31.90;;;;;;;1.04;85.50;98059.35;104022;1313;25265;-78
2021/11/27 01:29:48;;;;;;;79.30;33.40;;;;;;;1.05;85.63;98063.20;104029;1312;22555;-78
2021/11/27 01:32:19;;;;;;;78.40;31.70;;;;;;;1.03;85.69;98061.80;103876;1309;22578;-78
2021/11/27 01:34:50;;;;;;;82.10;31.80;;;;;;;0.99;85.74;98059.45;103802;1314;22574;-78
2021/11/27 01:37:21;;;;;;;73.70;31.50;;;;;;;0.99;85.82;98058.61;103914;1310;25544;-78
2021/11/27 01:39:52;;;;;;;83.70;34.00;;;;;;;0.99;85.89;98064.89;103876;1317;22654;-77
2021/11/27 01:42:24;;;;;;;83.40;33.80;;;;;;;1.00;85.90;98061.94;103759;1316;22521;-77
2021/11/27 01:44:55;;;;;;;80.40;35.50;;;;;;;1.00;85.94;98064.84;103749;1316;23703;-78
2021/11/27 01:47:27;;;;;;;78.10;34.70;;;;;;;1.01;85.96;98061.27;103788;1310;22607;-78
2021/11/27 01:49:58;;;;;;;89.50;39.70;;;;;;;1.02;85.98;98058.55;103752;1316;22787;-77
2021/11/27 01:52:29;;;;;;;92.70;39.90;;;;;;;1.02;86.09;98055.48;103858;1310;22558;-78
2021/11/27 01:55:00;;;;;;;101.50;43.50;;;;;;;1.02;86.03;98053.27;103741;1317;23250;-78
2021/11/27 01:57:31;;;;;;;85.20;35.70;;;;;;;1.03;86.01;98053.33;103959;1313;22622;-78
2021/11/27 02:00:03;;;;;;;88.40;36.40;;;;;;;1.03;86.04;98052.93;103969;1310;22906;-78
2021/11/27 02:02:35;;;;;;;110.50;46.20;;;;;;;1.03;86.02;98051.98;104057;1314;22992;-79
2021/11/27 02:05:08;;;;;;;91.70;38.00;;;;;;;1.02;86.08;98056.80;103951;1310;22582;-78
2021/11/27 02:07:40;;;;;;;83.60;34.70;;;;;;;1.00;86.11;98055.41;104197;1314;25418;-78
2021/11/27 02:10:14;;;;;;;109.00;47.00;;;;;;;1.00;86.19;98052.52;104050;1313;24367;-78
2021/11/27 02:12:46;;;;;;;110.70;51.30;;;;;;;1.01;86.23;98049.34;104076;1316;22730;-78
2021/11/27 02:15:19;;;;;;;100.30;42.50;;;;;;;1.03;86.22;98053.32;103940;1314;24796;-78
2021/11/27 02:17:50;;;;;;;93.40;38.90;;;;;;;1.05;86.19;98052.11;103966;1310;25445;-78
2021/11/27 02:20:24;;;;;;;113.00;51.10;;;;;;;1.06;86.21;98053.68;103833;1310;22597;-78
2021/11/27 02:22:55;;;;;;;135.50;62.70;;;;;;;1.08;86.22;98055.18;103775;1310;22646;-78
2021/11/27 02:25:26;;;;;;;125.70;57.90;;;;;;;1.09;86.20;98052.70;103734;1310;25571;-78
2021/11/27 02:27:58;;;;;;;105.70;44.60;;;;;;;1.09;86.15;98049.06;103820;1314;22577;-78
2021/11/27 02:30:30;;;;;;;123.00;54.20;;;;;;;1.09;86.21;98053.16;103793;1310;24753;-78
2021/11/27 02:33:02;;;;;;;98.90;43.20;;;;;;;1.10;86.16;98051.86;103821;1310;22640;-78
2021/11/27 02:35:33;;;;;;;93.80;39.10;;;;;;;1.08;86.22;98055.39;103834;1313;26462;-78
2021/11/27 02:38:04;;;;;;;97.20;44.50;;;;;;;1.07;86.20;98053.58;103871;1316;23966;-79
2021/11/27 02:40:36;;;;;;;88.40;38.40;;;;;;;1.07;86.31;98050.20;103843;1313;25447;-78
2021/11/27 02:43:07;;;;;;;80.20;33.60;;;;;;;1.06;86.35;98051.25;103754;1313;22574;-78
2021/11/27 02:45:39;;;;;;;84.70;37.10;;;;;;;1.07;86.29;98045.57;103774;1310;23430;-78
2021/11/27 02:48:10;;;;;;;80.70;33.80;;;;;;;1.08;86.35;98040.58;103979;1314;25647;-79
2021/11/27 02:50:41;;;;;;;76.00;30.90;;;;;;;1.09;86.42;98040.14;104216;1310;25379;-78
2021/11/27 02:53:13;;;;;;;83.40;34.60;;;;;;;1.07;86.33;98041.94;104945;1312;25510;-78
2021/11/27 02:55:45;;;;;;;79.60;32.60;;;;;;;1.08;86.37;98045.34;105665;1310;22763;-79
2021/11/27 02:58:17;;;;;;;80.00;33.70;;;;;;;1.10;86.39;98043.63;104290;1310;22600;-78
2021/11/27 03:00:50;;;;;;;83.40;34.40;;;;;;;1.13;86.35;98041.80;104085;1316;22866;-78
2021/11/27 03:03:24;;;;;;;76.50;33.90;;;;;;;1.15;86.31;98038.89;104080;1315;22617;-78
2021/11/27 03:05:55;;;;;;;81.10;34.90;;;;;;;1.15;86.31;98038.43;104121;1310;22732;-78
2021/11/27 03:08:26;;;;;;;85.50;34.20;;;;;;;1.14;86.33;98034.57;104246;1299;22557;-76
2021/11/27 03:10:58;;;;;;;80.20;34.00;;;;;;;1.14;86.35;98037.21;103512;1313;22596;-77
2021/11/27 03:13:32;;;;;;;77.40;33.10;;;;;;;1.15;86.37;98038.03;103519;1313;22801;-76
2021/11/27 03:16:04;;;;;;;80.90;33.70;;;;;;;1.16;86.37;98036.77;103446;1318;22730;-76
2021/11/27 03:18:35;;;;;;;81.20;33.90;;;;;;;1.18;86.31;98035.30;103432;1313;25452;-78
2021/11/27 03:21:06;;;;;;;75.40;31.70;;;;;;;1.17;86.33;98032.55;103536;1314;22570;-78
2021/11/27 03:23:37;;;;;;;87.30;34.60;;;;;;;1.16;86.42;98031.91;103503;1317;22895;-78
2021/11/27 03:26:08;;;;;;;86.70;35.10;;;;;;;1.13;86.40;98031.52;103515;1319;22818;-77
2021/11/27 03:28:39;;;;;;;80.00;33.70;;;;;;;1.13;86.43;98028.07;103398;1315;22646;-77
2021/11/27 03:31:11;;;;;;;80.30;34.80;;;;;;;1.14;86.49;98021.28;103425;1319;22644;-77
2021/11/27 03:33:42;;;;;;;86.00;36.80;;;;;;;1.15;86.43;98015.10;103297;1321;22637;-76
2021/11/27 03:36:14;;;;;;;84.60;35.30;;;;;;;1.14;86.46;98016.64;103386;1317;25543;-77
2021/11/27 03:38:46;;;;;;;84.40;34.50;;;;;;;1.13;86.43;98020.67;103186;1316;253501;-76
2021/11/27 03:41:18;;;;;;;82.70;34.50;;;;;;;1.14;86.51;98022.23;103387;1316;22590;-77
2021/11/27 03:43:49;;;;;;;81.70;35.80;;;;;;;1.13;86.41;98024.01;103556;1313;25044;-78
2021/11/27 03:46:21;;;;;;;83.70;35.20;;;;;;;1.12;86.43;98027.95;103273;1314;22583;-76
2021/11/27 03:48:54;;;;;;;86.50;35.40;;;;;;;1.12;86.58;98036.27;103484;1320;25554;-77
2021/11/27 03:51:28;;;;;;;81.50;35.00;;;;;;;1.12;86.39;98037.23;103484;1316;23489;-77
2021/11/27 03:54:00;;;;;;;81.90;33.70;;;;;;;1.11;86.53;98039.86;103339;1320;24286;-77
2021/11/27 03:56:32;;;;;;;77.70;32.80;;;;;;;1.12;86.54;98045.17;103302;1316;24303;-76
2021/11/27 03:59:06;;;;;;;78.80;33.50;;;;;;;1.11;86.55;98040.02;103257;1316;22772;-78
2021/11/27 04:01:37;;;;;;;79.90;32.80;;;;;;;1.10;86.52;98043.14;103313;1317;22570;-77
2021/11/27 04:04:09;;;;;;;80.60;33.40;;;;;;;1.11;86.68;98039.80;103265;1314;22693;-77
2021/11/27 04:06:41;;;;;;;78.90;35.70;;;;;;;1.10;86.62;98040.23;103238;1320;25349;-76
2021/11/27 04:09:13;;;;;;;81.70;33.50;;;;;;;1.09;86.62;98046.92;103295;1316;23458;-77
2021/11/27 04:11:44;;;;;;;85.70;34.60;;;;;;;1.10;86.68;98047.04;103252;1318;24277;-77
2021/11/27 04:14:15;;;;;;;85.50;33.60;;;;;;;1.11;86.65;98049.54;103234;1316;22756;-76
2021/11/27 04:16:46;;;;;;;81.60;34.30;;;;;;;1.10;86.63;98053.17;103254;1315;22650;-77
2021/11/27 04:19:17;;;;;;;78.50;32.80;;;;;;;1.09;86.64;98057.73;103296;1316;24513;-76
2021/11/27 04:21:48;;;;;;;77.70;32.00;;;;;;;1.06;86.62;98054.85;103196;1316;23040;-76
2021/11/27 04:24:19;;;;;;;79.60;31.70;;;;;;;1.04;86.62;98058.19;103268;1316;24169;-78
2021/11/27 04:26:50;;;;;;;81.30;32.40;;;;;;;1.05;86.75;98053.27;103343;1313;22661;-77
2021/11/27 04:29:20;;;;;;;78.00;34.50;;;;;;;1.06;86.79;98053.14;103211;1316;22684;-76
2021/11/27 04:31:51;;;;;;;81.60;33.10;;;;;;;1.06;86.72;98052.29;103241;1313;23647;-75
2021/11/27 04:34:22;;;;;;;72.10;31.50;;;;;;;1.08;86.66;98050.63;103241;1316;22614;-75
2021/11/27 04:36:53;;;;;;;76.90;32.10;;;;;;;1.09;86.80;98045.85;103247;1320;22838;-77
2021/11/27 04:39:24;;;;;;;80.20;34.30;;;;;;;1.09;86.77;98043.91;103238;1316;24299;-76
2021/11/27 04:41:54;;;;;;;76.10;31.70;;;;;;;1.09;86.81;98039.56;103275;1316;25528;-76
2021/11/27 04:44:26;;;;;;;75.50;31.60;;;;;;;1.10;86.78;98036.29;103170;1314;22564;-75
2021/11/27 04:46:57;;;;;;;71.80;30.70;;;;;;;1.10;86.75;98040.92;103197;1313;25354;-76
2021/11/27 04:49:29;;;;;;;74.30;31.50;;;;;;;1.09;86.73;98041.91;103253;1317;25589;-75
2021/11/27 04:52:00;;;;;;;89.70;37.10;;;;;;;1.08;86.78;98041.49;103256;1314;22650;-74
2021/11/27 04:54:30;;;;;;;92.80;39.70;;;;;;;1.07;86.85;98037.58;103201;1317;22596;-76
2021/11/27 04:57:01;;;;;;;90.20;37.70;;;;;;;1.08;86.91;98039.23;103253;1317;25438;-75
2021/11/27 04:59:32;;;;;;;84.40;37.80;;;;;;;1.08;86.85;98040.39;103226;1314;22777;-75
2021/11/27 05:02:03;;;;;;;76.90;33.60;;;;;;;1.08;86.98;98042.59;103308;1316;24396;-75
2021/11/27 05:04:34;;;;;;;76.70;33.20;;;;;;;1.09;86.94;98045.62;103257;1314;22727;-75
2021/11/27 05:07:05;;;;;;;74.20;30.80;;;;;;;1.09;86.94;98046.61;103270;1316;22615;-75
2021/11/27 05:09:36;;;;;;;78.90;32.30;;;;;;;1.10;86.97;98046.97;103274;1320;25433;-75
2021/11/27 05:12:08;;;;;;;73.20;31.50;;;;;;;1.10;87.01;98051.21;103212;1313;23061;-76
2021/11/27 05:14:39;;;;;;;69.00;29.00;;;;;;;1.09;86.91;98058.16;103206;1313;25524;-76
2021/11/27 05:17:11;;;;;;;66.10;28.20;;;;;;;1.10;87.04;98060.56;103218;1314;22623;-76
2021/11/27 05:19:42;;;;;;;63.50;27.10;;;;;;;1.12;87.03;98062.27;103221;1313;25459;-75
2021/11/27 05:22:13;;;;;;;68.00;29.70;;;;;;;1.12;86.92;98064.22;103172;1313;22583;-75
2021/11/27 05:24:45;;;;;;;66.60;28.70;;;;;;;1.12;86.92;98064.06;103246;1313;24287;-76
2021/11/27 05:27:18;;;;;;;64.90;27.40;;;;;;;1.13;86.90;98058.84;103261;1316;25578;-76
2021/11/27 05:29:50;;;;;;;61.70;27.80;;;;;;;1.15;86.94;98057.66;103323;1316;25576;-75
2021/11/27 05:32:24;;;;;;;68.40;28.10;;;;;;;1.15;86.92;98058.66;103238;1314;26903;-75
2021/11/27 05:34:56;;;;;;;66.20;29.70;;;;;;;1.15;86.94;98060.23;103304;1313;25476;-76
2021/11/27 05:37:28;;;;;;;73.30;31.30;;;;;;;1.15;86.92;98063.43;103364;1320;22571;-75
2021/11/27 05:40:03;;;;;;;75.20;31.90;;;;;;;1.15;86.87;98061.66;103228;1318;22993;-76
2021/11/27 05:42:35;;;;;;;66.50;29.30;;;;;;;1.14;86.85;98062.20;103439;1319;22670;-76
2021/11/27 05:45:09;;;;;;;65.70;29.80;;;;;;;1.12;86.98;98061.17;103239;1313;25384;-75
2021/11/27 05:47:40;;;;;;;62.40;25.40;;;;;;;1.11;86.92;98057.85;103383;1314;22656;-76
2021/11/27 05:50:13;;;;;;;68.60;27.60;;;;;;;1.11;87.13;98053.39;103257;1313;24458;-75
2021/11/27 05:52:44;;;;;;;66.00;28.10;;;;;;;1.11;87.02;98050.70;103231;1315;25436;-75
2021/11/27 05:55:15;;;;;;;63.10;27.90;;;;;;;1.12;87.10;98050.18;103217;1313;22692;-75
2021/11/27 05:57:46;;;;;;;67.10;29.20;;;;;;;1.13;87.02;98054.94;103202;1321;23528;-75
2021/11/27 06:00:21;;;;;;;63.60;28.70;;;;;;;1.14;87.05;98057.16;103153;1314;23393;-75
2021/11/27 06:02:52;;;;;;;63.70;29.40;;;;;;;1.14;87.03;98054.10;103212;1316;22672;-75
2021/11/27 06:05:28;;;;;;;64.40;29.90;;;;;;;1.13;87.01;98059.00;103236;1315;24265;-75
2021/11/27 06:08:00;;;;;;;60.90;27.40;;;;;;;1.12;87.12;98062.06;103274;1317;24350;-76
2021/11/27 06:10:31;;;;;;;61.20;27.70;;;;;;;1.12;87.13;98067.05;103215;1314;25386;-75
2021/11/27 06:13:03;;;;;;;66.30;26.00;;;;;;;1.13;87.12;98066.84;103243;1318;24475;-75
2021/11/27 06:15:34;;;;;;;66.70;25.50;;;;;;;1.12;87.08;98071.61;103225;1316;24244;-76
2021/11/27 06:18:05;;;;;;;61.70;27.30;;;;;;;1.12;87.12;98071.67;103223;1314;25459;-75
2021/11/27 06:20:36;;;;;;;63.40;27.00;;;;;;;1.13;87.28;98078.63;103239;1312;25339;-76
2021/11/27 06:23:07;;;;;;;58.60;25.50;;;;;;;1.13;87.17;98080.97;103244;1314;22626;-77
2021/11/27 06:25:38;;;;;;;58.60;26.60;;;;;;;1.14;87.25;98083.59;103262;1319;24352;-75
2021/11/27 06:28:09;;;;;;;61.30;26.60;;;;;;;1.15;87.23;98087.50;103181;1313;24330;-75
2021/11/27 06:30:41;;;;;;;57.50;27.00;;;;;;;1.16;87.15;98095.86;103259;1316;22802;-75
2021/11/27 06:33:12;;;;;;;58.00;25.70;;;;;;;1.17;87.21;98100.73;103238;1317;25578;-75
2021/11/27 06:35:43;;;;;;;61.40;26.60;;;;;;;1.16;87.17;98101.73;103277;1314;23165;-75
2021/11/27 06:38:14;;;;;;;54.20;24.50;;;;;;;1.15;87.11;98101.64;103244;1313;24309;-75
2021/11/27 06:40:44;;;;;;;57.90;25.00;;;;;;;1.13;87.08;98097.55;103376;1320;23096;-75
2021/11/27 06:43:15;;;;;;;61.80;26.50;;;;;;;1.13;87.21;98098.65;103327;1319;22611;-75
2021/11/27 06:45:46;;;;;;;53.60;24.50;;;;;;;1.13;87.27;98101.61;103235;1316;22638;-75
2021/11/27 06:48:20;;;;;;;55.30;25.30;;;;;;;1.15;87.28;98111.84;103320;1313;22652;-75
2021/11/27 06:50:50;;;;;;;60.30;27.50;;;;;;;1.14;87.27;98110.96;103369;1315;22734;-75
2021/11/27 06:53:21;;;;;;;62.60;29.90;;;;;;;1.15;87.25;98111.29;103345;1316;25299;-75
2021/11/27 06:55:52;;;;;;;74.10;33.00;;;;;;;1.16;87.33;98109.80;103337;1313;22834;-75
2021/11/27 06:58:23;;;;;;;92.50;43.10;;;;;;;1.18;87.35;98114.82;103226;1320;25531;-76
2021/11/27 07:00:54;;;;;;;95.50;46.00;;;;;;;1.20;87.37;98120.75;103317;1317;24534;-75
2021/11/27 07:03:25;;;;;;;95.90;44.00;;;;;;;1.22;87.42;98123.94;103254;1315;25503;-75
2021/11/27 07:05:56;;;;;;;82.40;37.30;;;;;;;1.24;87.31;98126.88;103214;1313;25468;-75
2021/11/27 07:08:28;;;;;;;67.50;33.30;;;;;;;1.23;87.32;98127.91;103205;1319;22796;-75
2021/11/27 07:10:59;;;;;;;69.60;31.50;;;;;;;1.23;87.29;98130.49;103354;1316;22654;-75
2021/11/27 07:13:30;;;;;;;60.70;29.30;;;;;;;1.24;87.26;98140.11;103283;1316;22593;-75
2021/11/27 07:16:00;;;;;;;63.40;29.60;;;;;;;1.24;87.24;98144.97;103338;1320;23183;-75
2021/11/27 07:18:31;;;;;;;61.40;27.90;;;;;;;1.24;87.19;98149.53;103269;1313;22568;-76
2021/11/27 07:21:02;;;;;;;70.50;32.80;;;;;;;1.23;87.18;98149.09;103341;1314;22678;-76
2021/11/27 07:23:33;;;;;;;61.10;29.10;;;;;;;1.23;87.05;98157.52;103364;1314;26206;-76
2021/11/27 07:26:04;;;;;;;66.90;28.30;;;;;;;1.21;86.91;98162.83;103330;1315;22654;-75
2021/11/27 07:28:35;;;;;;;61.50;26.80;;;;;;;1.20;86.91;98164.77;103317;1321;22641;-76
2021/11/27 07:31:06;;;;;;;57.40;25.50;;;;;;;1.19;86.88;98167.54;103270;1316;22605;-76
2021/11/27 07:33:37;;;;;;;59.60;25.30;;;;;;;1.19;86.99;98168.95;103301;1316;22650;-76
2021/11/27 07:36:09;;;;;;;48.90;21.80;;;;;;;1.20;86.97;98175.87;103306;1317;22631;-75
2021/11/27 07:38:40;;;;;;;50.90;22.30;;;;;;;1.21;86.85;98172.79;103390;1314;22608;-76
2021/11/27 07:41:12;;;;;;;49.20;21.00;;;;;;;1.22;86.80;98168.39;103412;1316;22580;-77
2021/11/27 07:43:43;;;;;;;49.50;22.30;;;;;;;1.23;86.88;98169.23;103323;1316;25584;-76
2021/11/27 07:46:15;;;;;;;56.70;22.80;;;;;;;1.23;86.83;98169.54;103347;1314;22608;-76
2021/11/27 07:48:45;;;;;;;55.50;23.60;;;;;;;1.25;86.80;98168.58;103303;1319;22601;-75
2021/11/27 07:51:16;;;;;;;53.80;23.80;;;;;;;1.27;86.75;98173.50;103325;1316;22580;-76
2021/11/27 07:53:47;;;;;;;58.20;24.20;;;;;;;1.27;86.79;98175.61;103400;1320;22561;-75
2021/11/27 07:56:18;;;;;;;53.80;23.50;;;;;;;1.27;86.68;98180.73;103323;1314;25506;-75
2021/11/27 07:58:49;;;;;;;56.60;25.20;;;;;;;1.29;86.68;98177.75;103334;1316;22590;-76
2021/11/27 08:01:20;;;;;;;56.90;24.60;;;;;;;1.30;86.64;98182.05;103404;1314;25494;-76
2021/11/27 08:03:51;;;;;;;49.60;22.00;;;;;;;1.32;86.51;98185.92;103296;1316;24414;-76
2021/11/27 08:06:22;;;;;;;54.40;23.40;;;;;;;1.31;86.50;98185.62;103352;1316;22676;-79
2021/11/27 08:08:53;;;;;;;60.30;25.30;;;;;;;1.32;86.45;98190.08;103297;1319;22631;-75
2021/11/27 08:11:25;;;;;;;61.50;24.80;;;;;;;1.32;86.57;98193.43;103271;1317;24346;-78
2021/11/27 08:13:56;;;;;;;58.60;24.60;;;;;;;1.33;86.61;98199.98;103609;1316;24254;-78
2021/11/27 08:16:26;;;;;;;65.20;26.60;;;;;;;1.34;86.57;98202.70;103593;1314;22596;-77
2021/11/27 08:18:57;;;;;;;53.30;25.30;;;;;;;1.33;86.43;98205.00;103681;1314;23147;-78
2021/11/27 08:21:29;;;;;;;59.20;24.20;;;;;;;1.34;86.41;98210.95;103539;1314;25409;-77
2021/11/27 08:23:59;;;;;;;59.20;25.50;;;;;;;1.35;86.37;98216.46;103593;1316;25392;-76
2021/11/27 08:26:30;;;;;;;55.50;23.50;;;;;;;1.35;86.36;98220.33;103459;1314;22586;-78
2021/11/27 08:29:01;;;;;;;53.40;22.50;;;;;;;1.36;86.41;98221.44;103556;1313;22608;-77
2021/11/27 08:31:33;;;;;;;49.40;20.70;;;;;;;1.38;86.42;98221.30;103461;1314;22641;-78
2021/11/27 08:34:04;;;;;;;54.30;22.20;;;;;;;1.38;86.31;98224.16;103555;1314;22637;-78
2021/11/27 08:36:35;;;;;;;49.40;22.30;;;;;;;1.38;86.28;98225.65;103517;1314;24216;-78
2021/11/27 08:39:06;;;;;;;51.60;21.80;;;;;;;1.37;86.21;98227.19;103528;1316;30427;-77
2021/11/27 08:41:38;;;;;;;52.60;21.70;;;;;;;1.39;86.17;98229.77;103562;1312;22669;-77
2021/11/27 08:44:09;;;;;;;53.90;22.50;;;;;;;1.42;86.23;98230.42;103484;1313;25794;-78
2021/11/27 08:46:40;;;;;;;55.20;22.30;;;;;;;1.44;86.24;98227.73;103420;1313;23526;-76
2021/11/27 08:49:12;;;;;;;57.60;23.40;;;;;;;1.45;86.04;98223.14;103455;1315;22603;-78
2021/11/27 08:51:43;;;;;;;56.90;24.30;;;;;;;1.42;85.77;98217.77;104191;1313;24314;-76
2021/11/27 08:54:15;;;;;;;58.10;22.80;;;;;;;1.41;85.70;98212.86;103609;1313;22593;-77
2021/11/27 08:56:47;;;;;;;59.10;24.40;;;;;;;1.41;85.70;98216.77;103397;1319;22731;-78
2021/11/27 08:59:17;;;;;;;57.90;21.50;;;;;;;1.43;85.89;98212.15;103505;1313;22579;-77
2021/11/27 09:01:48;;;;;;;48.10;20.00;;;;;;;1.42;85.71;98210.73;103580;1319;24425;-76
2021/11/27 09:04:19;;;;;;;55.30;22.20;;;;;;;1.40;85.82;98208.36;103806;1313;22637;-76
2021/11/27 09:06:51;;;;;;;52.50;20.60;;;;;;;1.39;85.63;98202.73;103722;1313;22594;-77
2021/11/27 09:09:21;;;;;;;60.30;21.80;;;;;;;1.39;85.48;98202.04;103538;1319;22821;-76
2021/11/27 09:11:53;;;;;;;55.00;20.50;;;;;;;1.38;85.62;98205.15;103505;1317;22581;-77
2021/11/27 09:14:24;;;;;;;61.70;24.40;;;;;;;1.39;85.76;98204.63;103487;1313;25392;-78
2021/11/27 09:16:56;;;;;;;54.90;24.00;;;;;;;1.43;85.89;98207.66;103500;1313;25397;-77
2021/11/27 09:19:27;;;;;;;77.80;32.70;;;;;;;1.46;85.92;98209.11;103543;1315;22607;-77
2021/11/27 09:21:57;;;;;;;71.50;28.70;;;;;;;1.47;85.98;98209.34;103334;1313;22604;-78
2021/11/27 09:24:29;;;;;;;60.00;24.40;;;;;;;1.46;85.92;98207.48;103393;1313;22642;-76
2021/11/27 09:27:00;;;;;;;58.10;22.80;;;;;;;1.47;86.00;98212.73;103382;1315;24493;-77
2021/11/27 09:29:31;;;;;;;52.90;21.40;;;;;;;1.46;85.95;98217.48;103414;1313;22647;-77
2021/11/27 09:32:03;;;;;;;54.70;22.20;;;;;;;1.45;85.87;98217.80;103390;1318;24468;-76
2021/11/27 09:34:34;;;;;;;59.90;24.10;;;;;;;1.42;85.83;98221.23;103309;1315;22580;-76
2021/11/27 09:37:07;;;;;;;47.20;19.80;;;;;;;1.41;85.88;98222.55;103313;1316;22580;-76
2021/11/27 09:39:38;;;;;;;58.50;24.30;;;;;;;1.39;86.03;98222.32;103380;1313;24238;-75
2021/11/27 09:42:10;;;;;;;67.60;25.70;;;;;;;1.40;86.26;98213.70;103363;1320;22612;-76
2021/11/27 09:44:44;;;;;;;80.90;30.80;;;;;;;1.44;86.30;98213.52;103400;1317;25384;-77
2021/11/27 09:47:16;;;;;;;71.40;26.40;;;;;;;1.46;86.24;98212.84;103532;1313;22590;-77
2021/11/27 09:49:49;;;;;;;69.40;25.30;;;;;;;1.48;86.14;98220.48;103468;1312;22580;-76
2021/11/27 09:52:21;;;;;;;65.90;25.00;;;;;;;1.50;86.09;98222.66;104356;1319;22590;-77
2021/11/27 09:54:53;;;;;;;63.60;24.90;;;;;;;1.51;86.20;98220.50;103306;1313;24243;-78
2021/11/27 09:57:24;;;;;;;60.10;23.90;;;;;;;1.51;86.03;98224.95;103359;1313;24429;-77
2021/11/27 09:59:55;;;;;;;56.50;24.20;;;;;;;1.52;86.00;98221.30;103312;1315;23317;-77
2021/11/27 10:02:27;;;;;;;61.60;22.10;;;;;;;1.52;86.01;98221.85;103359;1318;22561;-76
2021/11/27 10:04:59;;;;;;;54.90;23.70;;;;;;;1.52;86.06;98219.63;103549;1319;24203;-79
2021/11/27 10:07:31;;;;;;;60.80;23.40;;;;;;;1.54;86.00;98217.60;103538;1315;22573;-79
2021/11/27 10:10:05;;;;;;;61.00;24.50;;;;;;;1.56;86.14;98211.14;103673;1315;22711;-78
2021/11/27 10:12:43;;;;;;;55.50;22.90;;;;;;;1.57;86.15;98210.67;103557;1315;25421;-79
2021/11/27 10:15:17;;;;;;;54.10;21.20;;;;;;;1.58;86.11;98209.90;103406;1315;22596;-78
2021/11/27 10:17:49;;;;;;;57.20;21.90;;;;;;;1.60;85.94;98214.92;103541;1313;22661;-77
2021/11/27 10:20:19;;;;;;;57.30;23.50;;;;;;;1.62;86.14;98215.59;103559;1313;25534;-78
2021/11/27 10:22:54;;;;;;;66.30;27.40;;;;;;;1.66;86.26;98213.80;103546;1313;24246;-78
2021/11/27 10:25:37;;;;;;;62.50;25.30;;;;;;;1.66;86.22;98208.02;103660;1313;24237;-79
2021/11/27 10:28:15;;;;;;;59.20;24.40;;;;;;;1.68;86.12;98211.31;103866;1313;25316;-79
2021/11/27 10:30:55;;;;;;;59.80;22.30;;;;;;;1.70;86.09;98210.69;103899;1313;25889;-79
2021/11/27 10:33:26;;;;;;;69.90;27.60;;;;;;;1.71;85.98;98218.56;104264;1313;22540;-80
2021/11/27 10:36:01;;;;;;;70.50;25.70;;;;;;;1.71;86.00;98213.98;104252;1319;22602;-78
2021/11/27 10:38:41;;;;;;;56.40;22.70;;;;;;;1.74;86.05;98212.42;103707;1316;23346;-79
2021/11/27 10:41:14;;;;;;;52.10;22.00;;;;;;;1.74;85.95;98207.94;103794;1313;22665;-80
2021/11/27 10:44:02;;;;;;;54.40;23.30;;;;;;;1.75;85.79;98209.24;103859;1316;22630;-81
2021/11/27 10:46:35;;;;;;;53.90;22.20;;;;;;;1.76;85.71;98207.87;104213;1315;23072;-80
2021/11/27 10:49:07;;;;;;;53.40;21.00;;;;;;;1.76;85.76;98201.23;103901;1313;22555;-80
2021/11/27 10:51:39;;;;;;;51.30;20.50;;;;;;;1.77;85.81;98200.50;103764;1313;22606;-80
2021/11/27 10:54:10;;;;;;;51.60;23.00;;;;;;;1.79;85.84;98195.67;103841;1315;22675;-81
2021/11/27 10:56:46;;;;;;;58.20;24.50;;;;;;;1.80;85.72;98193.99;104227;1319;22609;-82
2021/11/27 10:59:18;;;;;;;52.30;21.70;;;;;;;1.82;85.89;98194.49;104428;1318;22638;-80
2021/11/27 11:02:05;;;;;;;62.30;24.60;;;;;;;1.85;85.90;98197.29;104362;1313;22706;-82
2021/11/27 11:04:42;;;;;;;63.50;25.00;;;;;;;1.87;85.90;98205.00;103817;1315;25405;-80
2021/11/27 11:07:28;;;;;;;53.20;21.10;;;;;;;1.89;85.76;98212.33;103885;1312;26713;-80
2021/11/27 11:10:11;;;;;;;50.80;22.70;;;;;;;1.90;85.78;98211.02;104395;1313;22626;-82
2021/11/27 11:12:48;;;;;;;51.40;20.10;;;;;;;1.91;85.67;98212.18;104306;1313;22620;-82
2021/11/27 11:15:27;;;;;;;52.50;20.60;;;;;;;1.92;85.76;98209.55;104541;1313;22639;-81
2021/11/27 11:18:18;;;;;;;52.50;20.90;;;;;;;1.95;85.76;98207.99;104186;1319;23895;-80
2021/11/27 11:20:54;;;;;;;51.20;19.50;;;;;;;1.98;85.78;98203.02;104346;1315;22692;-81
2021/11/27 11:23:27;;;;;;;46.70;19.40;;;;;;;2.01;85.68;98203.73;104270;1315;22665;-80
2021/11/27 11:26:01;;;;;;;52.30;21.40;;;;;;;2.04;85.72;98201.33;104260;1313;22652;-81
2021/11/27 11:28:36;;;;;;;61.20;23.00;;;;;;;2.08;85.69;98205.31;104340;1313;22596;-80
2021/11/27 11:31:09;;;;;;;55.50;22.20;;;;;;;2.10;85.62;98205.36;104243;1315;23373;-81
2021/11/27 11:33:45;;;;;;;50.00;20.40;;;;;;;2.11;85.55;98203.84;104279;1315;22562;-80
2021/11/27 11:36:19;;;;;;;49.40;20.20;;;;;;;2.14;85.45;98200.88;104268;1313;24026;-80
2021/11/27 11:38:56;;;;;;;55.40;22.80;;;;;;;2.15;85.56;98198.80;103605;1318;551719;-81